Terminal Aerodrome Forecast
Issued by NWS

Home | Current Version | Previous Version | Graphics & Text | Print | Product List | Glossary On
Versions: 1 2 3 4 5 6 7 8 9 10 11 12 13 14 15 16 17 18 19 20 21 22 23 24
000
FTUS43 KFGF 201500 AAA
TAFBJI
TAF AMD
KBJI 201515Z 2015/2112 15006KT P6SM SCT040
      TEMPO 2015/2017 BKN008
     FM202100 15010KT P6SM SCT250
     FM210600 13007KT P6SM VCTS BKN040CB=

USA.gov is the U.S. government's official web portal to all federal, state and local government web resources and services.